Main page
METAR-TAF:

METAR-TAF

Airports :

Baghdad, Iraq

Baghdad International Airport

latitude: 33-15-45N, longitude: 44-14-04E, elevation: 35 m

Current weather observation

The report was made 19 minutes ago, at 11:30 UTC
Wind 13 kt from the North/Northwest
Temperature 46°C
Humidity 12%
Pressure 1001 hPa
Visibility 10 km or more
no clouds below 1500 m and no cumulonimbus

METAR: ORBI 211130Z 34013KT CAVOK 46/10 Q1001

Time: 14:49 (11:49 UTC)

Forecast

The report was made 1 hour and 49 minutes ago, at 10:00 UTC
Forecast valid from 21 at 12 UTC to 22 at 12 UTC
Wind 12 kt from the Northwest
Visibility 10 km or more
no clouds below 1500 m and no cumulonimbus

TAF: ORBI 211000Z 2112/2212 32012KT CAVOK

Weather observations and forecasts of more than 4000 airports (METAR and TAF reports).

The available stations are represented by yellow and red dots on the map.

Hover mouse over dot to see the name of the station.

Then click to see weather observations and forecasts.

To change the map : click on the green buttons with a black cross to zoom in, on the green button with a dash to zoom out, or on the green arrows for adjacent maps.


METAR-TAF: